sensor_id;sensor_type;location;lat;lon;timestamp;P1;durP1;ratioP1;P2;durP2;ratioP2
71562;SDS011;59391;52.504;13.438;2023-02-24T00:01:51;37.15;;;13.65;;
71562;SDS011;59391;52.504;13.438;2023-02-24T00:04:33;42.13;;;14.50;;
71562;SDS011;59391;52.504;13.438;2023-02-24T00:07:03;40.47;;;14.02;;
71562;SDS011;59391;52.504;13.438;2023-02-24T00:09:31;38.27;;;14.53;;
71562;SDS011;59391;52.504;13.438;2023-02-24T00:12:03;38.38;;;13.43;;
71562;SDS011;59391;52.504;13.438;2023-02-24T00:14:36;35.35;;;12.85;;
71562;SDS011;59391;52.504;13.438;2023-02-24T00:17:05;38.28;;;14.30;;
71562;SDS011;59391;52.504;13.438;2023-02-24T00:19:32;36.47;;;13.07;;
71562;SDS011;59391;52.504;13.438;2023-02-24T00:21:59;38.73;;;14.13;;
71562;SDS011;59391;52.504;13.438;2023-02-24T00:24:27;37.28;;;13.95;;
71562;SDS011;59391;52.504;13.438;2023-02-24T00:30:04;39.53;;;13.00;;
71562;SDS011;59391;52.504;13.438;2023-02-24T00:32:31;36.58;;;12.55;;
71562;SDS011;59391;52.504;13.438;2023-02-24T00:34:59;31.97;;;12.50;;
71562;SDS011;59391;52.504;13.438;2023-02-24T00:37:24;31.90;;;12.70;;
71562;SDS011;59391;52.504;13.438;2023-02-24T00:39:50;34.03;;;12.20;;
71562;SDS011;59391;52.504;13.438;2023-02-24T00:42:21;29.80;;;11.52;;
71562;SDS011;59391;52.504;13.438;2023-02-24T00:44:47;33.47;;;11.43;;
71562;SDS011;59391;52.504;13.438;2023-02-24T00:47:13;31.95;;;11.55;;
71562;SDS011;59391;52.504;13.438;2023-02-24T00:49:40;31.20;;;11.10;;
71562;SDS011;59391;52.504;13.438;2023-02-24T00:52:11;32.65;;;10.85;;
71562;SDS011;59391;52.504;13.438;2023-02-24T00:54:44;27.60;;;10.38;;
71562;SDS011;59391;52.504;13.438;2023-02-24T00:57:13;23.05;;;7.88;;
71562;SDS011;59391;52.504;13.438;2023-02-24T00:59:42;20.83;;;8.48;;
71562;SDS011;59391;52.504;13.438;2023-02-24T01:02:11;23.13;;;7.43;;
71562;SDS011;59391;52.504;13.438;2023-02-24T01:04:38;21.35;;;7.38;;
71562;SDS011;59391;52.504;13.438;2023-02-24T01:07:04;24.13;;;7.20;;
71562;SDS011;59391;52.504;13.438;2023-02-24T01:09:34;16.20;;;6.45;;
71562;SDS011;59391;52.504;13.438;2023-02-24T01:12:02;18.00;;;6.67;;
71562;SDS011;59391;52.504;13.438;2023-02-24T01:15:02;21.23;;;7.10;;
71562;SDS011;59391;52.504;13.438;2023-02-24T01:17:29;19.95;;;7.18;;
71562;SDS011;59391;52.504;13.438;2023-02-24T01:19:55;15.80;;;6.60;;
71562;SDS011;59391;52.504;13.438;2023-02-24T01:22:24;16.57;;;6.50;;
71562;SDS011;59391;52.504;13.438;2023-02-24T01:24:51;18.00;;;5.88;;
71562;SDS011;59391;52.504;13.438;2023-02-24T01:27:17;17.60;;;6.50;;
71562;SDS011;59391;52.504;13.438;2023-02-24T01:29:43;17.10;;;5.97;;
71562;SDS011;59391;52.504;13.438;2023-02-24T01:32:14;16.10;;;5.60;;
71562;SDS011;59391;52.504;13.438;2023-02-24T01:34:44;13.88;;;5.78;;
71562;SDS011;59391;52.504;13.438;2023-02-24T01:37:10;16.60;;;5.72;;
71562;SDS011;59391;52.504;13.438;2023-02-24T01:39:40;20.98;;;5.80;;
71562;SDS011;59391;52.504;13.438;2023-02-24T01:42:09;14.10;;;5.17;;
71562;SDS011;59391;52.504;13.438;2023-02-24T01:47:07;24.48;;;5.78;;
71562;SDS011;59391;52.504;13.438;2023-02-24T01:49:35;15.52;;;4.60;;
71562;SDS011;59391;52.504;13.438;2023-02-24T01:52:16;14.15;;;4.18;;
71562;SDS011;59391;52.504;13.438;2023-02-24T01:57:25;15.35;;;4.30;;
71562;SDS011;59391;52.504;13.438;2023-02-24T01:59:55;15.88;;;5.10;;
71562;SDS011;59391;52.504;13.438;2023-02-24T02:02:35;14.27;;;4.88;;
71562;SDS011;59391;52.504;13.438;2023-02-24T02:05:06;14.77;;;5.00;;
71562;SDS011;59391;52.504;13.438;2023-02-24T02:07:34;13.53;;;4.00;;
71562;SDS011;59391;52.504;13.438;2023-02-24T02:10:03;18.70;;;4.55;;
71562;SDS011;59391;52.504;13.438;2023-02-24T02:12:31;16.00;;;4.40;;
71562;SDS011;59391;52.504;13.438;2023-02-24T02:15:01;19.83;;;4.70;;
71562;SDS011;59391;52.504;13.438;2023-02-24T02:17:35;17.08;;;4.70;;
71562;SDS011;59391;52.504;13.438;2023-02-24T02:20:26;16.60;;;4.23;;
71562;SDS011;59391;52.504;13.438;2023-02-24T02:23:25;21.30;;;4.45;;
71562;SDS011;59391;52.504;13.438;2023-02-24T02:26:22;15.18;;;4.57;;
71562;SDS011;59391;52.504;13.438;2023-02-24T02:32:49;20.90;;;6.22;;
71562;SDS011;59391;52.504;13.438;2023-02-24T02:35:58;16.03;;;3.67;;
71562;SDS011;59391;52.504;13.438;2023-02-24T02:38:42;9.07;;;3.53;;
71562;SDS011;59391;52.504;13.438;2023-02-24T02:45:06;11.45;;;3.13;;
71562;SDS011;59391;52.504;13.438;2023-02-24T02:51:12;11.53;;;3.53;;
71562;SDS011;59391;52.504;13.438;2023-02-24T02:53:59;15.45;;;4.40;;
71562;SDS011;59391;52.504;13.438;2023-02-24T02:56:41;9.32;;;3.22;;
71562;SDS011;59391;52.504;13.438;2023-02-24T02:59:13;15.18;;;3.83;;
71562;SDS011;59391;52.504;13.438;2023-02-24T03:01:47;13.80;;;3.65;;
71562;SDS011;59391;52.504;13.438;2023-02-24T03:04:16;12.70;;;4.03;;
71562;SDS011;59391;52.504;13.438;2023-02-24T03:06:58;18.10;;;4.07;;
71562;SDS011;59391;52.504;13.438;2023-02-24T03:09:29;12.00;;;3.80;;
71562;SDS011;59391;52.504;13.438;2023-02-24T03:12:04;12.15;;;3.75;;
71562;SDS011;59391;52.504;13.438;2023-02-24T03:14:40;12.63;;;3.60;;
71562;SDS011;59391;52.504;13.438;2023-02-24T03:17:16;10.70;;;3.30;;
71562;SDS011;59391;52.504;13.438;2023-02-24T03:19:49;13.98;;;3.90;;
71562;SDS011;59391;52.504;13.438;2023-02-24T03:22:32;10.07;;;3.70;;
71562;SDS011;59391;52.504;13.438;2023-02-24T03:25:06;9.68;;;3.40;;
71562;SDS011;59391;52.504;13.438;2023-02-24T03:27:35;11.00;;;3.75;;
71562;SDS011;59391;52.504;13.438;2023-02-24T03:30:14;11.13;;;3.77;;
71562;SDS011;59391;52.504;13.438;2023-02-24T03:32:50;9.43;;;3.50;;
71562;SDS011;59391;52.504;13.438;2023-02-24T03:35:29;13.15;;;3.85;;
71562;SDS011;59391;52.504;13.438;2023-02-24T03:38:03;11.15;;;3.80;;
71562;SDS011;59391;52.504;13.438;2023-02-24T03:40:30;13.88;;;3.60;;
71562;SDS011;59391;52.504;13.438;2023-02-24T03:43:43;13.07;;;3.60;;
71562;SDS011;59391;52.504;13.438;2023-02-24T03:45:55;14.15;;;3.60;;
71562;SDS011;59391;52.504;13.438;2023-02-24T03:48:24;9.52;;;4.00;;
71562;SDS011;59391;52.504;13.438;2023-02-24T03:50:52;11.15;;;3.60;;
71562;SDS011;59391;52.504;13.438;2023-02-24T03:53:29;12.82;;;3.90;;
71562;SDS011;59391;52.504;13.438;2023-02-24T03:56:18;12.33;;;3.93;;
71562;SDS011;59391;52.504;13.438;2023-02-24T03:59:15;12.68;;;4.15;;
71562;SDS011;59391;52.504;13.438;2023-02-24T04:02:13;12.55;;;3.55;;
71562;SDS011;59391;52.504;13.438;2023-02-24T04:04:49;9.32;;;3.83;;
71562;SDS011;59391;52.504;13.438;2023-02-24T04:10:10;10.87;;;4.00;;
71562;SDS011;59391;52.504;13.438;2023-02-24T04:13:34;9.82;;;3.90;;
71562;SDS011;59391;52.504;13.438;2023-02-24T04:15:45;15.68;;;5.50;;
71562;SDS011;59391;52.504;13.438;2023-02-24T04:18:24;10.93;;;4.38;;
71562;SDS011;59391;52.504;13.438;2023-02-24T04:20:54;15.90;;;4.80;;
71562;SDS011;59391;52.504;13.438;2023-02-24T04:23:25;12.50;;;3.83;;
71562;SDS011;59391;52.504;13.438;2023-02-24T04:25:57;11.20;;;3.65;;
71562;SDS011;59391;52.504;13.438;2023-02-24T04:28:25;14.27;;;3.75;;
71562;SDS011;59391;52.504;13.438;2023-02-24T04:30:54;11.63;;;3.80;;
71562;SDS011;59391;52.504;13.438;2023-02-24T04:33:30;10.60;;;4.38;;
71562;SDS011;59391;52.504;13.438;2023-02-24T04:35:57;17.03;;;4.47;;
71562;SDS011;59391;52.504;13.438;2023-02-24T04:38:23;15.95;;;4.72;;
71562;SDS011;59391;52.504;13.438;2023-02-24T04:40:49;11.57;;;3.92;;
71562;SDS011;59391;52.504;13.438;2023-02-24T04:43:15;16.20;;;4.20;;
71562;SDS011;59391;52.504;13.438;2023-02-24T04:45:42;13.27;;;3.83;;
71562;SDS011;59391;52.504;13.438;2023-02-24T04:48:08;13.25;;;4.15;;
71562;SDS011;59391;52.504;13.438;2023-02-24T04:50:38;10.93;;;4.00;;
71562;SDS011;59391;52.504;13.438;2023-02-24T04:53:08;14.50;;;4.35;;
71562;SDS011;59391;52.504;13.438;2023-02-24T04:55:41;14.15;;;4.85;;
71562;SDS011;59391;52.504;13.438;2023-02-24T04:58:15;12.63;;;3.93;;
71562;SDS011;59391;52.504;13.438;2023-02-24T05:00:45;11.20;;;4.15;;
71562;SDS011;59391;52.504;13.438;2023-02-24T05:03:16;8.93;;;3.78;;
71562;SDS011;59391;52.504;13.438;2023-02-24T05:05:47;9.65;;;3.58;;
71562;SDS011;59391;52.504;13.438;2023-02-24T05:08:16;11.80;;;3.53;;
71562;SDS011;59391;52.504;13.438;2023-02-24T05:10:43;9.70;;;3.33;;
71562;SDS011;59391;52.504;13.438;2023-02-24T05:13:16;10.52;;;3.40;;
71562;SDS011;59391;52.504;13.438;2023-02-24T05:15:45;8.75;;;3.72;;
71562;SDS011;59391;52.504;13.438;2023-02-24T05:18:13;11.05;;;3.80;;
71562;SDS011;59391;52.504;13.438;2023-02-24T05:20:51;11.68;;;4.35;;
71562;SDS011;59391;52.504;13.438;2023-02-24T05:23:40;7.17;;;3.23;;
71562;SDS011;59391;52.504;13.438;2023-02-24T05:26:10;11.07;;;3.47;;
71562;SDS011;59391;52.504;13.438;2023-02-24T05:28:45;9.82;;;3.55;;
71562;SDS011;59391;52.504;13.438;2023-02-24T05:31:16;10.82;;;3.50;;
71562;SDS011;59391;52.504;13.438;2023-02-24T05:33:51;8.07;;;3.40;;
71562;SDS011;59391;52.504;13.438;2023-02-24T05:36:19;10.33;;;3.77;;
71562;SDS011;59391;52.504;13.438;2023-02-24T05:38:47;10.73;;;3.60;;
71562;SDS011;59391;52.504;13.438;2023-02-24T05:41:19;8.40;;;3.50;;
71562;SDS011;59391;52.504;13.438;2023-02-24T05:43:47;8.25;;;3.10;;
71562;SDS011;59391;52.504;13.438;2023-02-24T05:46:22;7.95;;;3.22;;
71562;SDS011;59391;52.504;13.438;2023-02-24T05:48:56;11.87;;;3.20;;
71562;SDS011;59391;52.504;13.438;2023-02-24T05:51:26;7.80;;;3.38;;
71562;SDS011;59391;52.504;13.438;2023-02-24T05:54:06;9.05;;;3.10;;
71562;SDS011;59391;52.504;13.438;2023-02-24T05:56:35;8.65;;;2.88;;
71562;SDS011;59391;52.504;13.438;2023-02-24T05:59:04;11.25;;;3.60;;
71562;SDS011;59391;52.504;13.438;2023-02-24T06:01:36;8.73;;;2.80;;
71562;SDS011;59391;52.504;13.438;2023-02-24T06:04:11;9.88;;;3.33;;
71562;SDS011;59391;52.504;13.438;2023-02-24T06:06:45;11.43;;;2.92;;
71562;SDS011;59391;52.504;13.438;2023-02-24T06:09:17;8.25;;;2.95;;
71562;SDS011;59391;52.504;13.438;2023-02-24T06:11:47;9.77;;;3.13;;
71562;SDS011;59391;52.504;13.438;2023-02-24T06:14:14;6.97;;;2.83;;
71562;SDS011;59391;52.504;13.438;2023-02-24T06:16:40;9.88;;;3.20;;
71562;SDS011;59391;52.504;13.438;2023-02-24T06:19:10;9.15;;;2.70;;
71562;SDS011;59391;52.504;13.438;2023-02-24T06:21:37;8.43;;;2.80;;
71562;SDS011;59391;52.504;13.438;2023-02-24T06:24:06;10.25;;;2.90;;
71562;SDS011;59391;52.504;13.438;2023-02-24T06:26:40;11.67;;;2.37;;
71562;SDS011;59391;52.504;13.438;2023-02-24T06:29:12;7.25;;;3.10;;
71562;SDS011;59391;52.504;13.438;2023-02-24T06:31:41;8.00;;;3.20;;
71562;SDS011;59391;52.504;13.438;2023-02-24T06:34:08;9.20;;;3.00;;
71562;SDS011;59391;52.504;13.438;2023-02-24T06:36:37;7.28;;;3.20;;
71562;SDS011;59391;52.504;13.438;2023-02-24T06:39:03;8.27;;;2.80;;
71562;SDS011;59391;52.504;13.438;2023-02-24T06:41:32;12.10;;;3.60;;
71562;SDS011;59391;52.504;13.438;2023-02-24T06:44:01;9.77;;;3.10;;
71562;SDS011;59391;52.504;13.438;2023-02-24T06:46:27;8.00;;;3.00;;
71562;SDS011;59391;52.504;13.438;2023-02-24T06:48:53;6.50;;;2.65;;
71562;SDS011;59391;52.504;13.438;2023-02-24T06:51:20;9.75;;;2.90;;
71562;SDS011;59391;52.504;13.438;2023-02-24T06:53:47;10.13;;;2.90;;
71562;SDS011;59391;52.504;13.438;2023-02-24T06:56:15;10.83;;;2.80;;
71562;SDS011;59391;52.504;13.438;2023-02-24T06:58:44;7.63;;;2.80;;
71562;SDS011;59391;52.504;13.438;2023-02-24T07:01:20;7.75;;;2.80;;
71562;SDS011;59391;52.504;13.438;2023-02-24T07:03:50;10.52;;;2.83;;
71562;SDS011;59391;52.504;13.438;2023-02-24T07:06:27;9.00;;;3.13;;
71562;SDS011;59391;52.504;13.438;2023-02-24T07:09:00;8.67;;;3.17;;
71562;SDS011;59391;52.504;13.438;2023-02-24T07:11:30;9.38;;;3.47;;
71562;SDS011;59391;52.504;13.438;2023-02-24T07:13:57;9.35;;;3.20;;
71562;SDS011;59391;52.504;13.438;2023-02-24T07:16:25;11.73;;;5.35;;
71562;SDS011;59391;52.504;13.438;2023-02-24T07:18:54;11.43;;;3.50;;
71562;SDS011;59391;52.504;13.438;2023-02-24T07:21:23;6.63;;;3.40;;
71562;SDS011;59391;52.504;13.438;2023-02-24T07:23:51;9.00;;;3.08;;
71562;SDS011;59391;52.504;13.438;2023-02-24T07:26:23;12.93;;;4.68;;
71562;SDS011;59391;52.504;13.438;2023-02-24T07:28:52;9.95;;;2.70;;
71562;SDS011;59391;52.504;13.438;2023-02-24T07:31:19;9.60;;;2.92;;
71562;SDS011;59391;52.504;13.438;2023-02-24T07:33:48;9.40;;;3.50;;
71562;SDS011;59391;52.504;13.438;2023-02-24T07:36:19;7.38;;;2.60;;
71562;SDS011;59391;52.504;13.438;2023-02-24T07:38:47;10.10;;;3.28;;
71562;SDS011;59391;52.504;13.438;2023-02-24T07:41:16;8.45;;;2.67;;
71562;SDS011;59391;52.504;13.438;2023-02-24T07:43:46;9.68;;;3.85;;
71562;SDS011;59391;52.504;13.438;2023-02-24T07:46:18;9.30;;;3.57;;
71562;SDS011;59391;52.504;13.438;2023-02-24T07:48:52;10.00;;;3.47;;
71562;SDS011;59391;52.504;13.438;2023-02-24T07:51:21;12.20;;;3.60;;
71562;SDS011;59391;52.504;13.438;2023-02-24T07:53:50;10.32;;;4.25;;
71562;SDS011;59391;52.504;13.438;2023-02-24T07:56:21;10.32;;;3.60;;
71562;SDS011;59391;52.504;13.438;2023-02-24T07:59:00;11.07;;;4.40;;
71562;SDS011;59391;52.504;13.438;2023-02-24T08:01:32;7.55;;;4.10;;
71562;SDS011;59391;52.504;13.438;2023-02-24T08:04:03;9.60;;;4.30;;
71562;SDS011;59391;52.504;13.438;2023-02-24T08:06:40;8.45;;;3.58;;
71562;SDS011;59391;52.504;13.438;2023-02-24T08:09:09;10.07;;;3.78;;
71562;SDS011;59391;52.504;13.438;2023-02-24T08:11:54;10.33;;;3.83;;
71562;SDS011;59391;52.504;13.438;2023-02-24T08:14:21;10.32;;;3.33;;
71562;SDS011;59391;52.504;13.438;2023-02-24T08:16:56;9.38;;;3.70;;
71562;SDS011;59391;52.504;13.438;2023-02-24T08:19:26;12.85;;;3.50;;
71562;SDS011;59391;52.504;13.438;2023-02-24T08:22:03;8.98;;;3.47;;
71562;SDS011;59391;52.504;13.438;2023-02-24T08:24:45;12.20;;;3.50;;
71562;SDS011;59391;52.504;13.438;2023-02-24T08:27:24;7.80;;;3.88;;
71562;SDS011;59391;52.504;13.438;2023-02-24T08:29:54;7.38;;;3.80;;
71562;SDS011;59391;52.504;13.438;2023-02-24T08:32:25;9.85;;;3.55;;
71562;SDS011;59391;52.504;13.438;2023-02-24T08:37:42;5.53;;;2.90;;
71562;SDS011;59391;52.504;13.438;2023-02-24T08:40:22;8.68;;;3.42;;
71562;SDS011;59391;52.504;13.438;2023-02-24T08:43:04;9.55;;;3.80;;
71562;SDS011;59391;52.504;13.438;2023-02-24T08:45:42;7.30;;;3.15;;
71562;SDS011;59391;52.504;13.438;2023-02-24T08:48:26;11.20;;;3.65;;
71562;SDS011;59391;52.504;13.438;2023-02-24T08:51:01;8.57;;;3.60;;
71562;SDS011;59391;52.504;13.438;2023-02-24T08:53:35;10.90;;;3.88;;
71562;SDS011;59391;52.504;13.438;2023-02-24T08:56:04;10.80;;;3.63;;
71562;SDS011;59391;52.504;13.438;2023-02-24T08:58:35;12.68;;;4.07;;
71562;SDS011;59391;52.504;13.438;2023-02-24T09:01:05;12.80;;;4.20;;
71562;SDS011;59391;52.504;13.438;2023-02-24T09:03:43;8.47;;;4.00;;
71562;SDS011;59391;52.504;13.438;2023-02-24T09:06:12;9.20;;;3.72;;
71562;SDS011;59391;52.504;13.438;2023-02-24T09:08:41;10.88;;;3.70;;
71562;SDS011;59391;52.504;13.438;2023-02-24T09:11:13;8.05;;;3.22;;
71562;SDS011;59391;52.504;13.438;2023-02-24T09:13:41;8.50;;;3.53;;
71562;SDS011;59391;52.504;13.438;2023-02-24T09:16:16;7.30;;;4.17;;
71562;SDS011;59391;52.504;13.438;2023-02-24T09:18:47;6.60;;;2.53;;
71562;SDS011;59391;52.504;13.438;2023-02-24T09:21:36;9.85;;;3.90;;
71562;SDS011;59391;52.504;13.438;2023-02-24T09:24:14;7.15;;;3.38;;
71562;SDS011;59391;52.504;13.438;2023-02-24T09:26:51;12.02;;;3.80;;
71562;SDS011;59391;52.504;13.438;2023-02-24T09:29:22;11.03;;;4.07;;
71562;SDS011;59391;52.504;13.438;2023-02-24T09:32:02;11.65;;;3.90;;
71562;SDS011;59391;52.504;13.438;2023-02-24T09:34:33;8.48;;;3.60;;
71562;SDS011;59391;52.504;13.438;2023-02-24T09:37:03;10.05;;;3.08;;
71562;SDS011;59391;52.504;13.438;2023-02-24T09:39:32;9.40;;;3.60;;
71562;SDS011;59391;52.504;13.438;2023-02-24T09:42:32;7.03;;;3.17;;
71562;SDS011;59391;52.504;13.438;2023-02-24T09:45:11;6.35;;;3.20;;
71562;SDS011;59391;52.504;13.438;2023-02-24T09:47:57;7.05;;;2.97;;
71562;SDS011;59391;52.504;13.438;2023-02-24T09:50:34;8.15;;;3.95;;
71562;SDS011;59391;52.504;13.438;2023-02-24T09:53:22;6.10;;;3.25;;
71562;SDS011;59391;52.504;13.438;2023-02-24T09:55:58;8.00;;;3.50;;
71562;SDS011;59391;52.504;13.438;2023-02-24T09:58:37;8.15;;;2.90;;
71562;SDS011;59391;52.504;13.438;2023-02-24T10:04:05;6.78;;;3.05;;
71562;SDS011;59391;52.504;13.438;2023-02-24T10:07:16;9.98;;;3.33;;
71562;SDS011;59391;52.504;13.438;2023-02-24T10:09:50;10.23;;;3.70;;
71562;SDS011;59391;52.504;13.438;2023-02-24T10:12:35;7.78;;;2.92;;
71562;SDS011;59391;52.504;13.438;2023-02-24T10:15:08;10.32;;;3.50;;
71562;SDS011;59391;52.504;13.438;2023-02-24T10:17:45;8.20;;;3.40;;
71562;SDS011;59391;52.504;13.438;2023-02-24T10:20:20;7.07;;;3.20;;
71562;SDS011;59391;52.504;13.438;2023-02-24T10:26:12;7.80;;;3.45;;
71562;SDS011;59391;52.504;13.438;2023-02-24T10:29:12;8.25;;;3.40;;
71562;SDS011;59391;52.504;13.438;2023-02-24T10:35:15;7.97;;;2.95;;
71562;SDS011;59391;52.504;13.438;2023-02-24T10:37:45;8.10;;;3.10;;
71562;SDS011;59391;52.504;13.438;2023-02-24T10:40:13;8.77;;;3.42;;
71562;SDS011;59391;52.504;13.438;2023-02-24T10:42:50;7.90;;;2.63;;
71562;SDS011;59391;52.504;13.438;2023-02-24T10:45:28;7.35;;;2.38;;
71562;SDS011;59391;52.504;13.438;2023-02-24T10:47:56;7.82;;;2.58;;
71562;SDS011;59391;52.504;13.438;2023-02-24T10:53:13;6.93;;;3.20;;
71562;SDS011;59391;52.504;13.438;2023-02-24T10:56:05;8.10;;;2.70;;
71562;SDS011;59391;52.504;13.438;2023-02-24T10:59:00;5.85;;;2.40;;
71562;SDS011;59391;52.504;13.438;2023-02-24T11:01:51;6.88;;;3.00;;
71562;SDS011;59391;52.504;13.438;2023-02-24T11:04:48;8.77;;;2.90;;
71562;SDS011;59391;52.504;13.438;2023-02-24T11:07:23;6.95;;;2.80;;
71562;SDS011;59391;52.504;13.438;2023-02-24T11:10:05;5.65;;;2.80;;
71562;SDS011;59391;52.504;13.438;2023-02-24T11:12:45;8.02;;;2.90;;
71562;SDS011;59391;52.504;13.438;2023-02-24T11:15:35;4.90;;;2.72;;
71562;SDS011;59391;52.504;13.438;2023-02-24T11:18:31;6.47;;;3.10;;
71562;SDS011;59391;52.504;13.438;2023-02-24T11:21:02;6.72;;;3.10;;
71562;SDS011;59391;52.504;13.438;2023-02-24T11:23:37;8.07;;;3.13;;
71562;SDS011;59391;52.504;13.438;2023-02-24T11:26:20;8.82;;;3.67;;
71562;SDS011;59391;52.504;13.438;2023-02-24T11:31:44;8.63;;;3.37;;
71562;SDS011;59391;52.504;13.438;2023-02-24T11:40:11;7.90;;;3.90;;
71562;SDS011;59391;52.504;13.438;2023-02-24T11:42:57;7.95;;;3.58;;
71562;SDS011;59391;52.504;13.438;2023-02-24T11:48:08;8.85;;;3.70;;
71562;SDS011;59391;52.504;13.438;2023-02-24T11:50:55;8.68;;;4.00;;
71562;SDS011;59391;52.504;13.438;2023-02-24T11:56:15;6.75;;;3.45;;
71562;SDS011;59391;52.504;13.438;2023-02-24T12:05:02;8.07;;;3.25;;
71562;SDS011;59391;52.504;13.438;2023-02-24T12:07:42;7.53;;;4.07;;
71562;SDS011;59391;52.504;13.438;2023-02-24T12:10:24;7.75;;;4.10;;
71562;SDS011;59391;52.504;13.438;2023-02-24T12:12:59;5.53;;;2.97;;
71562;SDS011;59391;52.504;13.438;2023-02-24T12:21:14;7.30;;;3.78;;
71562;SDS011;59391;52.504;13.438;2023-02-24T12:23:54;7.07;;;2.83;;
71562;SDS011;59391;52.504;13.438;2023-02-24T12:26:26;7.00;;;3.80;;
71562;SDS011;59391;52.504;13.438;2023-02-24T12:35:40;9.77;;;4.22;;
71562;SDS011;59391;52.504;13.438;2023-02-24T12:47:28;6.95;;;3.40;;
71562;SDS011;59391;52.504;13.438;2023-02-24T12:50:46;12.25;;;4.50;;
71562;SDS011;59391;52.504;13.438;2023-02-24T12:54:07;8.98;;;3.75;;
71562;SDS011;59391;52.504;13.438;2023-02-24T13:00:08;7.95;;;4.03;;
71562;SDS011;59391;52.504;13.438;2023-02-24T13:02:54;7.47;;;3.63;;
71562;SDS011;59391;52.504;13.438;2023-02-24T13:08:46;6.97;;;3.33;;
71562;SDS011;59391;52.504;13.438;2023-02-24T13:11:41;8.13;;;3.77;;
71562;SDS011;59391;52.504;13.438;2023-02-24T13:14:20;8.07;;;3.28;;
71562;SDS011;59391;52.504;13.438;2023-02-24T13:19:34;7.72;;;3.83;;
71562;SDS011;59391;52.504;13.438;2023-02-24T13:22:04;10.10;;;4.80;;
71562;SDS011;59391;52.504;13.438;2023-02-24T13:24:36;8.43;;;3.77;;
71562;SDS011;59391;52.504;13.438;2023-02-24T13:27:28;8.43;;;4.03;;
71562;SDS011;59391;52.504;13.438;2023-02-24T13:30:06;8.48;;;4.30;;
71562;SDS011;59391;52.504;13.438;2023-02-24T13:33:17;7.00;;;3.83;;
71562;SDS011;59391;52.504;13.438;2023-02-24T13:39:03;7.00;;;3.00;;
71562;SDS011;59391;52.504;13.438;2023-02-24T13:41:44;6.88;;;3.60;;
71562;SDS011;59391;52.504;13.438;2023-02-24T13:44:24;8.00;;;3.95;;
71562;SDS011;59391;52.504;13.438;2023-02-24T13:49:42;9.27;;;4.03;;
71562;SDS011;59391;52.504;13.438;2023-02-24T13:52:51;8.73;;;3.77;;
71562;SDS011;59391;52.504;13.438;2023-02-24T13:55:46;8.70;;;3.90;;
71562;SDS011;59391;52.504;13.438;2023-02-24T13:58:17;8.40;;;3.90;;
71562;SDS011;59391;52.504;13.438;2023-02-24T14:01:29;8.30;;;3.60;;
71562;SDS011;59391;52.504;13.438;2023-02-24T14:04:19;7.32;;;3.92;;
71562;SDS011;59391;52.504;13.438;2023-02-24T14:06:52;8.43;;;4.47;;
71562;SDS011;59391;52.504;13.438;2023-02-24T14:09:24;12.45;;;5.13;;
71562;SDS011;59391;52.504;13.438;2023-02-24T14:12:07;7.53;;;4.03;;
71562;SDS011;59391;52.504;13.438;2023-02-24T14:14:41;8.10;;;4.00;;
71562;SDS011;59391;52.504;13.438;2023-02-24T14:17:26;7.78;;;4.20;;
71562;SDS011;59391;52.504;13.438;2023-02-24T14:22:47;7.97;;;4.93;;
71562;SDS011;59391;52.504;13.438;2023-02-24T14:25:22;6.10;;;4.00;;
71562;SDS011;59391;52.504;13.438;2023-02-24T14:27:52;8.02;;;4.32;;
71562;SDS011;59391;52.504;13.438;2023-02-24T14:33:00;5.33;;;3.53;;
71562;SDS011;59391;52.504;13.438;2023-02-24T14:35:36;6.75;;;3.80;;
71562;SDS011;59391;52.504;13.438;2023-02-24T14:38:16;6.10;;;3.65;;
71562;SDS011;59391;52.504;13.438;2023-02-24T14:40:58;7.00;;;4.22;;
71562;SDS011;59391;52.504;13.438;2023-02-24T14:43:25;9.15;;;3.80;;
71562;SDS011;59391;52.504;13.438;2023-02-24T14:45:51;7.23;;;4.00;;
71562;SDS011;59391;52.504;13.438;2023-02-24T14:48:20;9.57;;;5.30;;
71562;SDS011;59391;52.504;13.438;2023-02-24T14:50:53;9.73;;;5.93;;
71562;SDS011;59391;52.504;13.438;2023-02-24T14:53:47;10.50;;;4.00;;
71562;SDS011;59391;52.504;13.438;2023-02-24T14:56:21;5.32;;;3.60;;
71562;SDS011;59391;52.504;13.438;2023-02-24T15:01:33;10.07;;;4.68;;
71562;SDS011;59391;52.504;13.438;2023-02-24T15:07:00;6.72;;;4.18;;
71562;SDS011;59391;52.504;13.438;2023-02-24T15:09:32;9.73;;;5.10;;
71562;SDS011;59391;52.504;13.438;2023-02-24T15:12:22;7.70;;;4.60;;
71562;SDS011;59391;52.504;13.438;2023-02-24T15:14:59;7.55;;;4.10;;
71562;SDS011;59391;52.504;13.438;2023-02-24T15:17:32;5.63;;;3.47;;
71562;SDS011;59391;52.504;13.438;2023-02-24T15:20:24;7.30;;;5.10;;
71562;SDS011;59391;52.504;13.438;2023-02-24T15:22:59;7.00;;;4.30;;
71562;SDS011;59391;52.504;13.438;2023-02-24T15:25:29;7.63;;;4.80;;
71562;SDS011;59391;52.504;13.438;2023-02-24T15:28:20;13.02;;;6.45;;
71562;SDS011;59391;52.504;13.438;2023-02-24T15:30:54;7.47;;;4.03;;
71562;SDS011;59391;52.504;13.438;2023-02-24T15:33:29;6.03;;;3.38;;
71562;SDS011;59391;52.504;13.438;2023-02-24T15:36:04;5.90;;;3.92;;
71562;SDS011;59391;52.504;13.438;2023-02-24T15:38:44;6.77;;;4.27;;
71562;SDS011;59391;52.504;13.438;2023-02-24T15:41:11;7.25;;;4.95;;
71562;SDS011;59391;52.504;13.438;2023-02-24T15:46:30;8.38;;;4.32;;
71562;SDS011;59391;52.504;13.438;2023-02-24T15:48:59;7.80;;;4.68;;
71562;SDS011;59391;52.504;13.438;2023-02-24T15:51:37;6.80;;;3.90;;
71562;SDS011;59391;52.504;13.438;2023-02-24T15:54:14;7.22;;;4.18;;
71562;SDS011;59391;52.504;13.438;2023-02-24T15:56:44;9.98;;;4.93;;
71562;SDS011;59391;52.504;13.438;2023-02-24T15:59:15;7.13;;;4.25;;
71562;SDS011;59391;52.504;13.438;2023-02-24T16:01:42;9.40;;;4.18;;
71562;SDS011;59391;52.504;13.438;2023-02-24T16:04:08;8.07;;;4.57;;
71562;SDS011;59391;52.504;13.438;2023-02-24T16:06:34;8.18;;;4.25;;
71562;SDS011;59391;52.504;13.438;2023-02-24T16:09:06;6.47;;;4.10;;
71562;SDS011;59391;52.504;13.438;2023-02-24T16:11:38;8.10;;;4.70;;
71562;SDS011;59391;52.504;13.438;2023-02-24T16:14:11;7.22;;;4.10;;
71562;SDS011;59391;52.504;13.438;2023-02-24T16:16:41;7.45;;;4.65;;
71562;SDS011;59391;52.504;13.438;2023-02-24T16:19:07;7.90;;;4.20;;
71562;SDS011;59391;52.504;13.438;2023-02-24T16:21:38;9.57;;;5.63;;
71562;SDS011;59391;52.504;13.438;2023-02-24T16:24:04;6.72;;;3.97;;
71562;SDS011;59391;52.504;13.438;2023-02-24T16:26:30;12.15;;;6.50;;
71562;SDS011;59391;52.504;13.438;2023-02-24T16:29:02;8.57;;;5.07;;
71562;SDS011;59391;52.504;13.438;2023-02-24T16:31:29;10.05;;;6.07;;
71562;SDS011;59391;52.504;13.438;2023-02-24T16:33:55;11.30;;;5.80;;
71562;SDS011;59391;52.504;13.438;2023-02-24T16:36:22;10.87;;;6.00;;
71562;SDS011;59391;52.504;13.438;2023-02-24T16:38:49;11.52;;;6.45;;
71562;SDS011;59391;52.504;13.438;2023-02-24T16:41:15;9.65;;;5.65;;
71562;SDS011;59391;52.504;13.438;2023-02-24T16:43:41;15.55;;;7.03;;
71562;SDS011;59391;52.504;13.438;2023-02-24T16:46:12;13.90;;;7.33;;
71562;SDS011;59391;52.504;13.438;2023-02-24T16:48:40;13.07;;;7.00;;
71562;SDS011;59391;52.504;13.438;2023-02-24T16:51:10;10.95;;;7.13;;
71562;SDS011;59391;52.504;13.438;2023-02-24T16:53:36;10.20;;;6.07;;
71562;SDS011;59391;52.504;13.438;2023-02-24T16:56:02;10.83;;;7.23;;
71562;SDS011;59391;52.504;13.438;2023-02-24T16:58:29;11.52;;;7.10;;
71562;SDS011;59391;52.504;13.438;2023-02-24T17:00:56;13.15;;;6.60;;